Time;durP1;ratioP1;P1;durP2;ratioP2;P2;SDS_P1;SDS_P2;PMS_P1;PMS_P2;Temp;Humidity;BMP_temperature;BMP_pressure;BME280_temperature;BME280_humidity;BME280_pressure;Samples;Min_cycle;Max_cycle;Signal;HPM_P1;HPM_P2
2023/09/12 00:00:54;;;;;;;39.42;31.45;;;20.10;99.90;;;;;;4979354;28;20396;-56
2023/09/12 00:03:21;;;;;;;40.08;32.63;;;20.10;99.90;;;;;;4984753;28;20042;-55
2023/09/12 00:05:54;;;;;;;40.05;32.80;;;20.00;99.90;;;;;;4985180;28;20038;-56
2023/09/12 00:08:20;;;;;;;40.35;33.63;;;20.00;99.90;;;;;;4985131;28;20043;-51
2023/09/12 00:10:45;;;;;;;43.10;32.50;;;20.00;99.90;;;;;;4966005;28;20103;-53
2023/09/12 00:13:11;;;;;;;39.17;34.13;;;19.90;99.90;;;;;;4984687;28;20285;-54
2023/09/12 00:15:37;;;;;;;39.08;33.92;;;19.90;99.90;;;;;;4984762;28;20057;-57
2023/09/12 00:18:03;;;;;;;41.22;33.97;;;19.80;99.90;;;;;;4967845;28;20065;-53
2023/09/12 00:20:30;;;;;;;46.67;35.65;;;19.80;99.90;;;;;;4985338;28;20165;-56
2023/09/12 00:22:56;;;;;;;44.13;34.85;;;19.80;99.90;;;;;;4984782;28;20121;-56
2023/09/12 00:25:21;;;;;;;42.92;35.22;;;19.70;99.90;;;;;;4984140;28;20249;-57
2023/09/12 00:27:47;;;;;;;46.60;36.45;;;19.70;99.90;;;;;;4984190;28;20141;-57
2023/09/12 00:30:16;;;;;;;42.70;35.25;;;19.70;99.90;;;;;;4984640;28;20109;-57
2023/09/12 00:32:41;;;;;;;43.65;35.75;;;19.70;99.90;;;;;;4985058;28;20385;-57
2023/09/12 00:35:07;;;;;;;42.65;35.17;;;19.60;99.90;;;;;;4984753;28;20043;-56
2023/09/12 00:37:33;;;;;;;43.50;36.42;;;19.70;99.90;;;;;;4984940;28;20078;-57
2023/09/12 00:39:59;;;;;;;44.08;35.28;;;19.80;99.90;;;;;;4984113;28;20477;-56
2023/09/12 00:42:27;;;;;;;39.70;34.83;;;19.70;99.90;;;;;;4984440;28;20154;-54
2023/09/12 00:44:53;;;;;;;40.50;34.17;;;19.80;99.90;;;;;;4983797;28;20046;-55
2023/09/12 00:47:20;;;;;;;41.42;34.17;;;19.80;99.90;;;;;;4984656;28;20046;-54
2023/09/12 00:49:48;;;;;;;41.30;35.33;;;19.70;99.90;;;;;;4984721;28;20085;-55
2023/09/12 00:52:15;;;;;;;39.20;33.22;;;19.70;99.90;;;;;;4966820;28;20612;-56
2023/09/12 00:54:40;;;;;;;41.40;33.13;;;19.70;99.90;;;;;;4984218;28;20254;-56
2023/09/12 00:57:07;;;;;;;42.75;32.75;;;19.80;99.90;;;;;;4995322;28;20532;-56
2023/09/12 00:59:33;;;;;;;43.60;33.72;;;19.90;99.90;;;;;;4984465;28;20130;-56
2023/09/12 01:01:59;;;;;;;42.03;33.33;;;19.80;99.90;;;;;;4984119;28;20054;-57
2023/09/12 01:04:26;;;;;;;42.08;34.78;;;19.70;99.90;;;;;;4984574;28;20042;-56
2023/09/12 01:06:52;;;;;;;43.67;34.85;;;19.80;99.90;;;;;;4985555;28;20464;-57
2023/09/12 01:09:18;;;;;;;47.25;36.10;;;19.60;99.90;;;;;;5004742;28;20129;-56
2023/09/12 01:11:44;;;;;;;45.60;35.67;;;19.70;99.90;;;;;;5007318;28;20124;-56
2023/09/12 01:14:09;;;;;;;41.92;34.15;;;19.60;99.90;;;;;;5007819;28;20142;-55
2023/09/12 01:16:35;;;;;;;49.85;36.85;;;19.40;99.90;;;;;;5008576;28;20129;-54
2023/09/12 01:19:01;;;;;;;47.47;37.28;;;19.50;99.90;;;;;;5006785;28;20125;-55
2023/09/12 01:21:54;;;;;;;47.50;37.70;;;19.50;99.90;;;;;;5008193;28;20042;-55
2023/09/12 01:24:59;;;;;;;47.35;38.65;;;19.50;99.90;;;;;;4988893;28;20132;-56
2023/09/12 01:27:31;;;;;;;46.20;37.72;;;19.50;99.90;;;;;;4976710;28;20405;-53
2023/09/12 01:30:01;;;;;;;46.53;38.03;;;19.40;99.90;;;;;;5006894;28;20050;-56
2023/09/12 01:32:28;;;;;;;48.72;38.60;;;19.30;99.90;;;;;;5000646;28;20050;-53
2023/09/12 01:34:54;;;;;;;46.90;38.45;;;19.30;99.90;;;;;;5006510;28;20446;-54
2023/09/12 01:37:20;;;;;;;48.92;38.13;;;19.20;99.90;;;;;;5007385;28;20137;-53
2023/09/12 01:39:45;;;;;;;47.63;39.53;;;19.30;99.90;;;;;;5007098;28;20037;-57
2023/09/12 01:42:15;;;;;;;49.58;38.88;;;19.20;99.90;;;;;;5007439;28;20476;-54
2023/09/12 01:44:43;;;;;;;47.90;38.42;;;19.20;99.90;;;;;;4988702;28;20049;-56
2023/09/12 01:47:11;;;;;;;49.03;39.15;;;19.10;99.90;;;;;;5006903;28;20041;-57
2023/09/12 01:49:41;;;;;;;49.60;38.80;;;19.10;99.90;;;;;;5006260;28;20042;-56
2023/09/12 01:52:07;;;;;;;51.83;40.25;;;19.10;99.90;;;;;;5005984;28;20050;-54
2023/09/12 01:54:34;;;;;;;52.72;39.55;;;19.10;99.90;;;;;;5004674;28;20084;-52
2023/09/12 01:57:01;;;;;;;48.10;38.80;;;19.10;99.90;;;;;;4998074;28;20584;-55
2023/09/12 01:59:28;;;;;;;51.97;39.63;;;19.10;99.90;;;;;;4987224;28;20077;-55
2023/09/12 02:01:53;;;;;;;48.88;38.63;;;19.10;99.90;;;;;;4986479;28;20670;-56
2023/09/12 02:04:19;;;;;;;46.83;39.63;;;19.00;99.90;;;;;;4987049;28;20042;-56
2023/09/12 02:06:45;;;;;;;50.15;39.65;;;19.00;99.90;;;;;;4987614;28;20042;-57
2023/09/12 02:09:10;;;;;;;45.55;38.10;;;19.00;99.90;;;;;;4968542;28;20050;-58
2023/09/12 02:11:36;;;;;;;50.60;39.53;;;19.00;99.90;;;;;;4987318;28;20397;-55
2023/09/12 02:14:02;;;;;;;46.53;38.75;;;18.90;99.90;;;;;;4987098;28;20062;-56
2023/09/12 02:16:29;;;;;;;48.28;38.60;;;18.90;99.90;;;;;;4986879;28;20497;-57
2023/09/12 02:18:54;;;;;;;47.88;38.65;;;18.90;99.90;;;;;;4969031;28;20042;-57
2023/09/12 02:21:20;;;;;;;46.70;37.97;;;18.90;99.90;;;;;;4987175;28;20042;-56
2023/09/12 02:23:46;;;;;;;46.03;37.72;;;18.90;99.90;;;;;;4986576;28;20066;-57
2023/09/12 02:26:11;;;;;;;43.63;37.72;;;18.90;99.90;;;;;;4968693;28;20061;-54
2023/09/12 02:28:37;;;;;;;48.25;37.58;;;18.90;99.90;;;;;;4969958;28;20061;-56
2023/09/12 02:31:02;;;;;;;45.78;38.08;;;18.90;99.90;;;;;;4987301;28;20117;-57
2023/09/12 02:33:28;;;;;;;46.38;38.92;;;18.80;99.90;;;;;;4986724;28;20043;-57
2023/09/12 02:35:54;;;;;;;47.85;38.63;;;18.80;99.90;;;;;;4968200;28;20046;-57
2023/09/12 02:38:19;;;;;;;48.35;39.60;;;18.90;99.90;;;;;;4987243;28;20041;-56
2023/09/12 02:40:45;;;;;;;47.67;39.70;;;18.80;99.90;;;;;;5005859;28;20052;-57
2023/09/12 02:43:11;;;;;;;50.85;39.67;;;18.80;99.90;;;;;;5006511;28;20046;-55
2023/09/12 02:45:36;;;;;;;52.90;40.47;;;18.80;99.90;;;;;;5006173;28;20057;-52
2023/09/12 02:48:02;;;;;;;51.17;39.97;;;18.80;99.90;;;;;;5005952;28;20092;-57
2023/09/12 02:50:27;;;;;;;52.45;41.63;;;18.70;99.90;;;;;;5006007;28;20137;-56
2023/09/12 02:52:53;;;;;;;53.95;40.13;;;18.60;99.90;;;;;;5005122;28;20129;-55
2023/09/12 02:55:19;;;;;;;53.80;41.78;;;18.70;99.90;;;;;;5000344;28;20077;-54
2023/09/12 02:57:44;;;;;;;57.50;42.92;;;18.70;99.90;;;;;;4994993;28;20392;-55
2023/09/12 03:00:11;;;;;;;51.67;41.17;;;18.70;99.90;;;;;;4986878;28;20469;-54
2023/09/12 03:02:36;;;;;;;48.85;41.45;;;18.60;99.90;;;;;;4985814;28;20487;-54
2023/09/12 03:05:02;;;;;;;53.85;41.70;;;18.60;99.90;;;;;;4986451;28;20050;-55
2023/09/12 03:07:29;;;;;;;52.90;42.60;;;18.50;99.90;;;;;;4986297;28;20093;-56
2023/09/12 03:09:55;;;;;;;54.95;40.70;;;18.50;99.90;;;;;;4984565;28;20073;-55
2023/09/12 03:12:20;;;;;;;53.45;42.00;;;18.50;99.90;;;;;;4985959;28;20238;-57
2023/09/12 03:14:46;;;;;;;52.25;40.95;;;18.50;99.90;;;;;;4986397;28;20758;-54
2023/09/12 03:17:11;;;;;;;49.70;40.95;;;18.60;99.90;;;;;;4986122;28;20049;-55
2023/09/12 03:19:37;;;;;;;52.08;39.65;;;18.50;99.90;;;;;;4985461;28;20042;-56
2023/09/12 03:22:03;;;;;;;52.08;39.72;;;18.60;99.90;;;;;;4985824;28;20527;-55
2023/09/12 03:24:29;;;;;;;51.35;40.53;;;18.50;99.90;;;;;;4985054;28;20786;-56
2023/09/12 03:26:55;;;;;;;50.50;40.58;;;18.50;99.90;;;;;;4986045;28;20038;-56
2023/09/12 03:29:21;;;;;;;52.20;39.20;;;18.50;99.90;;;;;;4967225;28;20044;-57
2023/09/12 03:31:46;;;;;;;50.38;40.22;;;18.50;99.90;;;;;;4985437;28;20058;-56
2023/09/12 03:34:12;;;;;;;47.70;38.20;;;18.50;99.90;;;;;;4985738;28;20039;-55
2023/09/12 03:36:37;;;;;;;47.90;40.08;;;18.40;99.90;;;;;;4984905;28;20186;-53
2023/09/12 03:39:05;;;;;;;50.25;39.50;;;18.40;99.90;;;;;;4985195;28;20050;-57
2023/09/12 03:41:31;;;;;;;53.03;38.85;;;18.40;99.90;;;;;;4985833;28;20177;-57
2023/09/12 03:43:56;;;;;;;46.97;40.35;;;18.30;99.90;;;;;;4985542;28;20042;-55
2023/09/12 03:46:22;;;;;;;51.08;40.50;;;18.30;99.90;;;;;;4984662;28;20085;-56
2023/09/12 03:48:48;;;;;;;55.28;41.17;;;18.30;99.90;;;;;;4985036;28;20443;-56
2023/09/12 03:51:14;;;;;;;54.75;41.10;;;18.30;99.90;;;;;;4985925;28;20066;-51
2023/09/12 03:53:40;;;;;;;54.30;39.72;;;18.30;99.90;;;;;;4983885;28;20074;-57
2023/09/12 03:56:06;;;;;;;49.92;39.45;;;18.30;99.90;;;;;;4991349;28;20488;-57
2023/09/12 03:58:31;;;;;;;50.10;38.72;;;18.30;99.90;;;;;;4987968;28;20042;-56
2023/09/12 04:00:57;;;;;;;50.55;40.53;;;18.30;99.90;;;;;;4984018;28;20053;-55
2023/09/12 04:03:23;;;;;;;54.60;41.42;;;18.30;99.90;;;;;;4984622;28;20070;-54
2023/09/12 04:05:50;;;;;;;54.10;39.83;;;18.30;99.90;;;;;;4984878;28;20046;-56
2023/09/12 04:08:16;;;;;;;54.15;41.70;;;18.20;99.90;;;;;;4984662;28;20038;-55
2023/09/12 04:10:43;;;;;;;51.83;40.20;;;18.20;99.90;;;;;;4984889;28;20396;-54
2023/09/12 04:13:08;;;;;;;51.45;40.28;;;18.20;99.90;;;;;;4984641;28;20121;-53
2023/09/12 04:15:34;;;;;;;55.40;40.55;;;18.10;99.90;;;;;;4984775;28;20576;-53
2023/09/12 04:17:59;;;;;;;51.33;39.85;;;18.10;99.90;;;;;;4984916;28;20228;-56
2023/09/12 04:20:25;;;;;;;50.90;38.70;;;18.10;99.90;;;;;;4983935;28;20038;-52
2023/09/12 04:22:51;;;;;;;53.22;40.45;;;18.10;99.90;;;;;;4984918;28;20042;-53
2023/09/12 04:25:19;;;;;;;55.90;40.78;;;18.00;99.90;;;;;;4966422;28;20778;-54
2023/09/12 04:27:45;;;;;;;53.08;38.80;;;18.00;99.90;;;;;;4984954;28;20088;-51
2023/09/12 04:30:12;;;;;;;53.15;39.92;;;18.00;99.90;;;;;;4984084;28;20444;-56
2023/09/12 04:32:37;;;;;;;54.13;40.38;;;18.00;99.90;;;;;;4984655;28;20046;-53
2023/09/12 04:35:03;;;;;;;50.45;40.40;;;17.90;99.90;;;;;;4984999;28;20042;-55
2023/09/12 04:37:29;;;;;;;55.92;40.05;;;17.90;99.90;;;;;;4966180;28;20050;-54
2023/09/12 04:39:54;;;;;;;52.95;40.03;;;17.90;99.90;;;;;;4984114;28;20053;-55
2023/09/12 04:42:20;;;;;;;50.78;37.88;;;17.90;99.90;;;;;;4983550;28;20070;-55
2023/09/12 04:44:46;;;;;;;53.00;39.85;;;17.90;99.90;;;;;;4984864;28;20489;-54
2023/09/12 04:47:12;;;;;;;50.88;38.92;;;18.00;99.90;;;;;;4966188;28;20090;-55
2023/09/12 04:49:38;;;;;;;52.92;38.50;;;17.90;99.90;;;;;;4984591;28;20073;-54
2023/09/12 04:52:04;;;;;;;48.72;37.45;;;17.90;99.90;;;;;;4966861;28;20062;-55
2023/09/12 04:54:30;;;;;;;51.63;39.10;;;18.00;99.90;;;;;;4983008;28;20050;-54
2023/09/12 04:56:55;;;;;;;49.90;39.08;;;17.90;99.90;;;;;;4992460;28;20516;-53
2023/09/12 04:59:21;;;;;;;50.95;38.72;;;17.90;99.90;;;;;;5004011;28;20054;-54
2023/09/12 05:01:47;;;;;;;51.08;38.40;;;17.90;99.90;;;;;;5003680;28;20060;-56
2023/09/12 05:04:12;;;;;;;55.30;39.13;;;17.80;99.90;;;;;;5003261;28;20523;-55
2023/09/12 05:06:39;;;;;;;49.47;39.20;;;17.80;99.90;;;;;;5004035;28;20096;-54
2023/09/12 05:09:05;;;;;;;51.80;39.38;;;17.80;99.90;;;;;;5003289;28;20049;-55
2023/09/12 05:11:31;;;;;;;52.17;39.42;;;17.80;99.90;;;;;;5003414;28;20389;-56
2023/09/12 05:13:57;;;;;;;52.10;37.85;;;17.80;99.90;;;;;;5003223;28;20046;-56
2023/09/12 05:16:22;;;;;;;51.83;38.47;;;17.80;99.90;;;;;;5003727;28;20506;-54
2023/09/12 05:18:49;;;;;;;52.55;40.20;;;17.70;99.90;;;;;;5003407;28;20408;-56
2023/09/12 05:21:15;;;;;;;52.13;38.20;;;17.80;99.90;;;;;;5002219;28;20100;-55
2023/09/12 05:23:41;;;;;;;49.60;38.67;;;17.80;99.90;;;;;;5002369;28;20050;-55
2023/09/12 05:26:07;;;;;;;49.35;38.65;;;17.80;99.90;;;;;;5000976;28;20047;-56
2023/09/12 05:28:33;;;;;;;52.22;39.83;;;17.80;99.90;;;;;;4979104;28;20266;-55
2023/09/12 05:30:59;;;;;;;50.88;38.72;;;17.80;99.90;;;;;;5002295;28;20486;-54
2023/09/12 05:33:24;;;;;;;50.13;38.50;;;17.80;99.90;;;;;;5002868;28;20076;-55
2023/09/12 05:35:50;;;;;;;51.70;39.67;;;17.80;99.90;;;;;;5003035;28;20093;-55
2023/09/12 05:38:16;;;;;;;50.65;38.33;;;17.80;99.90;;;;;;5002311;28;20038;-56
2023/09/12 05:40:41;;;;;;;47.55;38.75;;;17.80;99.90;;;;;;5002415;28;20046;-56
2023/09/12 05:43:07;;;;;;;49.35;37.40;;;17.90;99.90;;;;;;5002890;28;20040;-53
2023/09/12 05:45:32;;;;;;;50.83;38.67;;;17.80;99.90;;;;;;5002974;28;20128;-56
2023/09/12 05:47:59;;;;;;;49.40;38.33;;;17.90;99.90;;;;;;5002770;28;20468;-55
2023/09/12 05:50:24;;;;;;;47.20;38.67;;;17.90;99.90;;;;;;5003602;28;20100;-56
2023/09/12 05:52:50;;;;;;;50.63;38.22;;;17.90;99.90;;;;;;4990242;28;20500;-55
2023/09/12 05:55:17;;;;;;;48.67;38.13;;;17.90;99.90;;;;;;4988710;28;20878;-54
2023/09/12 05:57:43;;;;;;;47.40;38.22;;;17.90;99.90;;;;;;4995556;28;20054;-54
2023/09/12 06:00:11;;;;;;;49.95;38.72;;;17.80;99.90;;;;;;4986389;28;20046;-54
2023/09/12 06:02:38;;;;;;;52.97;39.60;;;17.90;99.90;;;;;;4986537;28;20100;-53
2023/09/12 06:05:04;;;;;;;49.15;38.55;;;17.80;99.90;;;;;;4967951;28;20125;-54
2023/09/12 06:07:32;;;;;;;48.75;38.35;;;17.80;99.90;;;;;;4986831;28;20047;-53
2023/09/12 06:09:57;;;;;;;47.58;37.35;;;17.80;99.90;;;;;;4986432;28;20057;-58
2023/09/12 06:12:23;;;;;;;45.78;37.70;;;17.90;99.90;;;;;;4969239;28;20062;-55
2023/09/12 06:14:49;;;;;;;44.80;36.15;;;17.90;99.90;;;;;;4986983;28;20042;-56
2023/09/12 06:17:15;;;;;;;41.72;34.75;;;17.90;99.90;;;;;;4987429;28;20042;-56
2023/09/12 06:19:40;;;;;;;43.05;35.78;;;17.90;99.90;;;;;;4987279;28;20133;-56
2023/09/12 06:22:06;;;;;;;42.55;35.30;;;18.00;99.90;;;;;;4986564;28;20050;-56
2023/09/12 06:24:32;;;;;;;44.17;34.88;;;18.00;99.90;;;;;;4986345;28;20038;-55
2023/09/12 06:26:57;;;;;;;39.33;33.38;;;18.00;99.90;;;;;;4987208;28;20047;-56
2023/09/12 06:29:23;;;;;;;56.97;33.40;;;18.00;99.90;;;;;;4974481;28;20046;-56
2023/09/12 06:31:49;;;;;;;51.92;32.70;;;18.00;99.90;;;;;;5003881;28;20048;-56
2023/09/12 06:34:14;;;;;;;79.65;32.92;;;17.80;99.90;;;;;;5005599;28;20061;-57
2023/09/12 06:36:44;;;;;;;112.47;35.28;;;17.80;99.90;;;;;;5006343;28;20132;-57
2023/09/12 06:39:10;;;;;;;130.93;35.22;;;17.70;99.90;;;;;;5004840;28;20050;-54
2023/09/12 06:41:36;;;;;;;91.88;37.70;;;17.70;99.90;;;;;;5006271;28;20422;-56
2023/09/12 06:44:04;;;;;;;115.90;38.35;;;17.60;99.90;;;;;;4989119;28;20049;-53
2023/09/12 06:46:29;;;;;;;76.72;37.70;;;17.60;99.90;;;;;;5004988;28;20042;-52
2023/09/12 06:48:56;;;;;;;154.73;35.17;;;17.60;99.90;;;;;;5005501;28;20575;-55
2023/09/12 06:51:25;;;;;;;127.00;35.65;;;17.60;99.90;;;;;;5002586;28;20697;-56
2023/09/12 06:53:51;;;;;;;93.22;36.00;;;17.60;99.90;;;;;;5003667;28;20060;-55
2023/09/12 06:56:17;;;;;;;79.18;37.60;;;17.60;99.90;;;;;;4994072;28;20485;-55
2023/09/12 06:58:42;;;;;;;82.60;37.22;;;17.60;99.90;;;;;;4988245;28;20039;-54
2023/09/12 07:01:08;;;;;;;88.53;37.03;;;17.50;99.90;;;;;;4986074;28;20121;-56
2023/09/12 07:03:35;;;;;;;174.88;37.00;;;17.60;99.90;;;;;;4986062;28;20043;-55
2023/09/12 07:06:02;;;;;;;50.03;34.65;;;17.70;99.90;;;;;;4985016;28;20062;-57
2023/09/12 07:08:30;;;;;;;76.32;35.35;;;17.70;99.90;;;;;;4985177;28;20092;-61
2023/09/12 07:10:57;;;;;;;64.15;34.33;;;17.80;99.90;;;;;;4988969;28;20050;-61
2023/09/12 07:13:23;;;;;;;84.53;34.70;;;17.80;99.90;;;;;;5000966;28;20061;-60
2023/09/12 07:15:50;;;;;;;104.07;34.88;;;17.80;99.90;;;;;;4988929;28;20050;-61
2023/09/12 07:18:16;;;;;;;76.30;35.60;;;17.90;99.90;;;;;;5005955;28;20056;-61
2023/09/12 07:20:41;;;;;;;76.55;35.83;;;18.00;99.90;;;;;;5005214;28;20042;-61
2023/09/12 07:23:07;;;;;;;67.90;34.20;;;17.90;99.90;;;;;;5004268;28;20049;-61
2023/09/12 07:25:40;;;;;;;46.05;35.05;;;18.10;99.90;;;;;;5005375;28;20816;-62
2023/09/12 07:28:06;;;;;;;44.28;35.47;;;18.10;99.90;;;;;;4989213;28;20350;-62
2023/09/12 07:30:32;;;;;;;42.25;33.42;;;18.10;99.90;;;;;;4984906;28;20061;-49
2023/09/12 07:32:58;;;;;;;50.65;33.53;;;18.20;99.90;;;;;;4999037;28;20539;-60
2023/09/12 07:35:24;;;;;;;42.55;33.58;;;18.20;99.90;;;;;;4996294;28;20372;-60
2023/09/12 07:37:50;;;;;;;46.13;33.60;;;18.30;99.90;;;;;;4993138;28;20730;-61
2023/09/12 07:40:16;;;;;;;40.65;33.00;;;18.40;99.90;;;;;;4998743;28;20045;-56
2023/09/12 07:42:41;;;;;;;39.75;32.33;;;18.50;99.90;;;;;;4990089;28;20064;-54
2023/09/12 07:45:08;;;;;;;39.65;31.85;;;18.50;99.90;;;;;;4984912;28;20038;-56
2023/09/12 07:47:33;;;;;;;40.65;33.38;;;18.60;99.90;;;;;;4984998;28;20492;-56
2023/09/12 07:50:00;;;;;;;43.05;34.33;;;18.60;99.90;;;;;;4995838;28;20043;-56
2023/09/12 07:52:26;;;;;;;47.00;36.03;;;18.50;99.90;;;;;;4985966;28;20724;-57
2023/09/12 07:54:56;;;;;;;47.88;37.55;;;18.30;99.90;;;;;;4997622;28;20030;-57
2023/09/12 07:57:23;;;;;;;46.13;37.08;;;18.30;99.90;;;;;;4994173;28;20047;-57
2023/09/12 07:59:48;;;;;;;49.22;39.20;;;18.30;99.90;;;;;;4995176;28;20072;-58
2023/09/12 08:02:14;;;;;;;55.33;41.03;;;18.30;99.90;;;;;;5005035;28;20120;-57
2023/09/12 08:04:40;;;;;;;51.15;39.53;;;18.40;99.90;;;;;;5003733;28;20041;-57
2023/09/12 08:07:05;;;;;;;56.33;42.20;;;18.50;99.90;;;;;;5003041;28;20088;-57
2023/09/12 08:09:49;;;;;;;60.38;44.40;;;18.50;99.90;;;;;;5003081;28;20515;-57
2023/09/12 08:12:15;;;;;;;58.97;43.65;;;18.60;99.90;;;;;;4976192;28;20089;-58
2023/09/12 08:14:41;;;;;;;55.55;42.75;;;18.80;99.90;;;;;;4984720;28;20089;-58
2023/09/12 08:17:06;;;;;;;62.05;44.03;;;18.80;99.90;;;;;;4966813;28;20106;-58
2023/09/12 08:19:32;;;;;;;60.35;45.05;;;18.90;99.90;;;;;;4983454;28;20569;-57
2023/09/12 08:21:57;;;;;;;61.75;45.78;;;18.90;99.90;;;;;;4985277;28;20050;-56
2023/09/12 08:24:23;;;;;;;64.65;45.40;;;19.10;99.90;;;;;;4984215;28;20520;-56
2023/09/12 08:26:49;;;;;;;59.90;43.95;;;19.10;99.90;;;;;;4984725;28;20081;-57
2023/09/12 08:29:15;;;;;;;63.58;44.95;;;19.30;99.90;;;;;;4984057;28;20418;-53
2023/09/12 08:31:40;;;;;;;60.22;43.45;;;19.30;99.90;;;;;;4984781;28;20133;-58
2023/09/12 08:34:06;;;;;;;60.97;44.33;;;19.40;99.90;;;;;;4985021;28;20444;-56
2023/09/12 08:36:32;;;;;;;57.15;43.33;;;19.50;99.90;;;;;;4983817;28;20042;-57
2023/09/12 08:38:57;;;;;;;58.10;43.78;;;19.40;99.90;;;;;;4984304;28;20042;-58
2023/09/12 08:41:23;;;;;;;60.08;44.03;;;19.40;99.90;;;;;;4984516;28;20169;-58
2023/09/12 08:43:48;;;;;;;60.30;44.53;;;19.40;99.90;;;;;;4984758;28;20121;-57
2023/09/12 08:46:16;;;;;;;61.28;44.17;;;19.40;99.90;;;;;;4966358;28;20440;-58
2023/09/12 08:48:42;;;;;;;59.88;44.22;;;19.40;99.90;;;;;;4984353;28;20365;-58
2023/09/12 08:51:09;;;;;;;57.60;43.13;;;19.40;99.90;;;;;;4984623;28;20417;-58
2023/09/12 08:53:35;;;;;;;58.33;45.58;;;19.50;99.90;;;;;;4983154;28;20096;-57
2023/09/12 08:56:03;;;;;;;57.72;42.72;;;19.60;99.90;;;;;;4990731;28;20057;-57
2023/09/12 08:58:32;;;;;;;54.95;42.10;;;19.60;99.90;;;;;;4983483;28;20394;-59
2023/09/12 09:00:58;;;;;;;55.05;41.60;;;19.70;99.90;;;;;;4985079;28;20121;-57
2023/09/12 09:03:24;;;;;;;52.65;40.75;;;19.80;99.90;;;;;;4983894;28;20540;-55
2023/09/12 09:05:52;;;;;;;53.72;40.30;;;20.00;99.90;;;;;;4998287;28;20044;-58
2023/09/12 09:08:19;;;;;;;52.63;40.15;;;20.10;99.90;;;;;;5002651;28;20053;-56
2023/09/12 09:10:59;;;;;;;49.58;38.35;;;20.20;99.90;;;;;;4993524;28;20050;-58
2023/09/12 09:13:25;;;;;;;52.97;40.78;;;20.30;99.90;;;;;;4975301;28;20050;-56
2023/09/12 09:16:12;;;;;;;48.25;37.45;;;20.30;99.90;;;;;;4984808;28;20133;-56
2023/09/12 09:18:54;;;;;;;47.53;37.03;;;20.50;99.90;;;;;;4983577;28;20045;-56
2023/09/12 09:21:25;;;;;;;43.13;35.97;;;20.70;99.90;;;;;;4982928;28;20057;-58
2023/09/12 09:23:51;;;;;;;45.47;36.70;;;20.80;99.90;;;;;;4983569;28;20093;-57
2023/09/12 09:26:17;;;;;;;43.85;35.13;;;20.80;99.90;;;;;;4966552;28;20072;-57
2023/09/12 09:28:43;;;;;;;43.50;35.85;;;20.90;99.90;;;;;;4986403;28;20090;-56
2023/09/12 09:31:13;;;;;;;43.20;34.95;;;21.00;99.90;;;;;;4987142;28;20038;-58
2023/09/12 09:33:51;;;;;;;43.58;36.22;;;20.90;99.90;;;;;;4988077;28;20046;-60
2023/09/12 09:36:16;;;;;;;46.13;35.45;;;20.90;99.90;;;;;;4987096;28;20054;-56
2023/09/12 09:38:43;;;;;;;44.28;34.00;;;20.80;99.90;;;;;;4986820;28;20042;-58
2023/09/12 09:41:09;;;;;;;41.70;32.92;;;20.80;99.90;;;;;;4991759;28;20042;-58
2023/09/12 09:43:35;;;;;;;41.28;33.15;;;20.70;99.90;;;;;;5007032;28;20691;-57
2023/09/12 09:46:01;;;;;;;45.03;34.10;;;20.60;99.90;;;;;;5007000;28;20057;-58
2023/09/12 09:48:27;;;;;;;45.13;34.40;;;20.60;99.90;;;;;;5007848;28;20132;-57
2023/09/12 09:50:59;;;;;;;41.13;32.33;;;20.50;99.90;;;;;;5007073;28;20611;-57
2023/09/12 09:53:34;;;;;;;40.70;33.63;;;20.50;99.90;;;;;;5006251;28;20042;-57
2023/09/12 09:56:14;;;;;;;41.97;34.17;;;20.60;99.90;;;;;;5002359;28;20042;-58
2023/09/12 09:58:55;;;;;;;38.55;31.10;;;20.80;99.90;;;;;;4987689;28;20046;-56
2023/09/12 10:01:28;;;;;;;39.17;31.10;;;20.90;99.90;;;;;;4989565;28;20616;-58
2023/09/12 10:03:58;;;;;;;37.03;31.30;;;21.10;99.90;;;;;;5007481;28;20045;-57
2023/09/12 10:06:26;;;;;;;39.25;30.95;;;21.00;99.90;;;;;;5006833;28;20440;-57
2023/09/12 10:08:53;;;;;;;35.90;29.70;;;20.90;99.90;;;;;;5006260;28;20069;-57
2023/09/12 10:11:23;;;;;;;37.08;29.55;;;20.90;99.90;;;;;;5006290;28;20053;-57
2023/09/12 10:14:02;;;;;;;35.55;28.55;;;20.90;99.90;;;;;;5004338;28;20054;-57
2023/09/12 10:16:31;;;;;;;36.28;28.33;;;21.00;99.90;;;;;;5006049;28;20050;-57
2023/09/12 10:19:06;;;;;;;35.30;27.85;;;21.00;99.90;;;;;;5005122;28;20120;-57
2023/09/12 10:21:34;;;;;;;35.78;28.58;;;21.10;99.90;;;;;;5006430;28;20092;-58
2023/09/12 10:24:03;;;;;;;35.15;28.23;;;21.30;99.90;;;;;;5005425;28;20120;-57
2023/09/12 10:26:31;;;;;;;34.90;27.98;;;21.30;99.90;;;;;;5005774;28;20470;-57
2023/09/12 10:28:59;;;;;;;33.92;27.52;;;21.40;99.90;;;;;;5006154;28;20120;-56
2023/09/12 10:31:26;;;;;;;33.75;27.52;;;21.50;99.90;;;;;;4988899;28;20072;-57
2023/09/12 10:33:53;;;;;;;32.33;27.55;;;21.50;99.90;;;;;;5005218;28;20656;-57
2023/09/12 10:36:19;;;;;;;33.70;27.15;;;21.50;99.90;;;;;;4988891;28;20068;-57
2023/09/12 10:38:47;;;;;;;33.50;27.13;;;21.50;99.90;;;;;;5004408;28;20089;-57
2023/09/12 10:41:14;;;;;;;33.03;26.60;;;21.70;99.90;;;;;;4988356;28;20095;-57
2023/09/12 10:43:42;;;;;;;33.13;26.40;;;21.70;99.90;;;;;;5004973;28;20053;-56
2023/09/12 10:46:08;;;;;;;31.83;25.52;;;21.80;99.90;;;;;;5006581;28;20179;-56
2023/09/12 10:48:39;;;;;;;29.95;24.67;;;21.90;99.90;;;;;;4988183;28;20042;-57
2023/09/12 10:51:07;;;;;;;31.65;25.27;;;21.90;99.90;;;;;;5005384;28;20046;-57
2023/09/12 10:53:33;;;;;;;32.47;26.23;;;21.90;99.90;;;;;;4998051;28;20133;-57
2023/09/12 10:56:09;;;;;;;34.30;26.88;;;21.80;99.90;;;;;;4998057;28;20507;-57
2023/09/12 10:59:06;;;;;;;32.30;25.98;;;21.90;99.90;;;;;;4990392;28;20081;-54
2023/09/12 11:01:45;;;;;;;31.45;24.95;;;22.10;99.90;;;;;;5005029;28;20177;-58
2023/09/12 11:04:20;;;;;;;31.92;26.52;;;22.20;99.90;;;;;;4987923;28;20053;-59
2023/09/12 11:06:47;;;;;;;33.70;26.23;;;22.40;99.90;;;;;;4987175;28;20045;-59
2023/09/12 11:09:18;;;;;;;32.63;26.60;;;22.50;99.90;;;;;;5003088;28;20073;-58
2023/09/12 11:11:49;;;;;;;31.40;24.45;;;22.50;99.90;;;;;;5004961;28;20069;-57
2023/09/12 11:14:15;;;;;;;32.00;25.83;;;22.60;99.90;;;;;;4988046;28;20462;-57
2023/09/12 11:16:41;;;;;;;33.70;26.52;;;22.60;99.90;;;;;;5005104;28;20049;-58
2023/09/12 11:19:26;;;;;;;32.65;26.65;;;22.40;99.90;;;;;;5004964;28;20071;-59
2023/09/12 11:21:53;;;;;;;33.55;26.00;;;22.40;99.90;;;;;;4987159;28;20042;-56
2023/09/12 11:24:20;;;;;;;30.25;24.38;;;22.40;99.90;;;;;;5004557;28;20619;-59
2023/09/12 11:27:12;;;;;;;32.88;26.02;;;22.40;99.90;;;;;;5004913;28;20054;-58
2023/09/12 11:29:39;;;;;;;28.30;24.85;;;22.60;99.90;;;;;;4990897;28;20374;-58
2023/09/12 11:32:06;;;;;;;30.42;24.67;;;22.60;99.90;;;;;;4994950;28;20081;-57
2023/09/12 11:34:43;;;;;;;29.77;24.27;;;22.70;99.90;;;;;;4994459;28;20408;-59
2023/09/12 11:37:09;;;;;;;30.67;24.55;;;22.80;99.90;;;;;;4993958;28;20056;-58
2023/09/12 11:39:39;;;;;;;32.03;24.30;;;22.80;99.90;;;;;;4961494;28;20046;-58
2023/09/12 11:42:08;;;;;;;30.08;24.60;;;22.80;99.90;;;;;;5004783;28;20042;-58
2023/09/12 11:44:34;;;;;;;29.65;25.15;;;22.80;99.90;;;;;;4987725;28;20412;-59
2023/09/12 11:47:06;;;;;;;29.17;24.88;;;22.90;99.90;;;;;;5001253;28;20046;-58
2023/09/12 11:49:40;;;;;;;30.00;23.83;;;22.90;99.90;;;;;;4984479;28;20093;-58
2023/09/12 11:52:10;;;;;;;26.77;23.38;;;23.00;99.90;;;;;;4983764;28;20148;-58
2023/09/12 11:54:37;;;;;;;30.13;24.75;;;23.10;99.90;;;;;;4984932;28;20094;-59
2023/09/12 11:57:03;;;;;;;29.83;24.30;;;23.10;99.90;;;;;;4990796;28;20045;-59
2023/09/12 11:59:29;;;;;;;27.20;23.95;;;23.00;99.90;;;;;;4985973;28;20045;-58
2023/09/12 12:01:56;;;;;;;27.98;22.80;;;23.00;99.90;;;;;;4984967;28;20049;-59
2023/09/12 12:04:22;;;;;;;25.48;21.52;;;23.20;99.90;;;;;;4989495;28;20129;-59
2023/09/12 12:06:52;;;;;;;25.27;21.15;;;23.50;99.90;;;;;;4993651;28;20093;-58
2023/09/12 12:09:19;;;;;;;27.45;23.45;;;23.60;99.90;;;;;;4983216;28;20050;-58
2023/09/12 12:11:46;;;;;;;28.42;22.38;;;23.80;99.90;;;;;;4984327;28;20053;-53
2023/09/12 12:14:14;;;;;;;28.27;24.67;;;23.80;99.90;;;;;;4984047;28;20057;-56
2023/09/12 12:16:43;;;;;;;30.45;24.60;;;24.00;99.90;;;;;;4984287;28;20046;-58
2023/09/12 12:19:11;;;;;;;30.05;25.90;;;24.00;99.90;;;;;;4950120;28;20042;-58
2023/09/12 12:21:37;;;;;;;29.90;24.40;;;23.90;99.90;;;;;;4984028;28;20034;-59
2023/09/12 12:24:04;;;;;;;27.70;23.40;;;23.90;99.90;;;;;;4982847;28;20053;-58
2023/09/12 12:26:30;;;;;;;25.92;22.38;;;24.00;99.90;;;;;;4984236;28;20460;-58